sensor_id;sensor_type;location;lat;lon;timestamp;temperature;humidity
65582;DHT22;52231;40.090;18.348;2023-11-22T00:02:27;17.30;91.60
65582;DHT22;52231;40.090;18.348;2023-11-22T00:04:57;17.30;91.60
65582;DHT22;52231;40.090;18.348;2023-11-22T00:07:25;17.30;91.70
65582;DHT22;52231;40.090;18.348;2023-11-22T00:09:56;17.30;91.80
65582;DHT22;52231;40.090;18.348;2023-11-22T00:12:25;17.30;91.90
65582;DHT22;52231;40.090;18.348;2023-11-22T00:14:54;17.30;92.00
65582;DHT22;52231;40.090;18.348;2023-11-22T00:17:22;17.30;92.00
65582;DHT22;52231;40.090;18.348;2023-11-22T00:19:52;17.30;92.00
65582;DHT22;52231;40.090;18.348;2023-11-22T00:22:20;17.40;92.10
65582;DHT22;52231;40.090;18.348;2023-11-22T00:24:49;17.40;92.20
65582;DHT22;52231;40.090;18.348;2023-11-22T00:27:18;17.50;92.20
65582;DHT22;52231;40.090;18.348;2023-11-22T00:29:46;17.60;92.20
65582;DHT22;52231;40.090;18.348;2023-11-22T00:32:14;17.60;92.10
65582;DHT22;52231;40.090;18.348;2023-11-22T00:34:42;17.60;92.10
65582;DHT22;52231;40.090;18.348;2023-11-22T00:37:11;17.60;92.20
65582;DHT22;52231;40.090;18.348;2023-11-22T00:39:39;17.50;92.10
65582;DHT22;52231;40.090;18.348;2023-11-22T00:42:08;17.50;92.10
65582;DHT22;52231;40.090;18.348;2023-11-22T00:44:36;17.60;92.10
65582;DHT22;52231;40.090;18.348;2023-11-22T00:47:04;17.50;92.10
65582;DHT22;52231;40.090;18.348;2023-11-22T00:49:33;17.60;92.10
65582;DHT22;52231;40.090;18.348;2023-11-22T00:52:01;17.60;92.10
65582;DHT22;52231;40.090;18.348;2023-11-22T00:54:30;17.50;92.10
65582;DHT22;52231;40.090;18.348;2023-11-22T00:56:58;17.60;92.00
65582;DHT22;52231;40.090;18.348;2023-11-22T00:59:27;17.60;92.00
65582;DHT22;52231;40.090;18.348;2023-11-22T01:01:55;17.60;92.00
65582;DHT22;52231;40.090;18.348;2023-11-22T01:04:23;17.60;92.00
65582;DHT22;52231;40.090;18.348;2023-11-22T01:06:51;17.70;92.00
65582;DHT22;52231;40.090;18.348;2023-11-22T01:09:20;17.80;92.00
65582;DHT22;52231;40.090;18.348;2023-11-22T01:11:50;17.80;91.90
65582;DHT22;52231;40.090;18.348;2023-11-22T01:14:18;17.80;91.90
65582;DHT22;52231;40.090;18.348;2023-11-22T01:16:46;17.80;91.80
65582;DHT22;52231;40.090;18.348;2023-11-22T01:19:15;17.80;91.80
65582;DHT22;52231;40.090;18.348;2023-11-22T01:21:43;17.80;91.90
65582;DHT22;52231;40.090;18.348;2023-11-22T01:24:11;17.80;91.90
65582;DHT22;52231;40.090;18.348;2023-11-22T01:26:40;17.80;91.90
65582;DHT22;52231;40.090;18.348;2023-11-22T01:29:08;17.80;91.90
65582;DHT22;52231;40.090;18.348;2023-11-22T01:31:37;17.80;91.90
65582;DHT22;52231;40.090;18.348;2023-11-22T01:34:05;17.80;91.90
65582;DHT22;52231;40.090;18.348;2023-11-22T01:36:34;17.80;91.90
65582;DHT22;52231;40.090;18.348;2023-11-22T01:39:03;17.80;91.90
65582;DHT22;52231;40.090;18.348;2023-11-22T01:41:31;17.80;91.90
65582;DHT22;52231;40.090;18.348;2023-11-22T01:43:59;17.80;91.80
65582;DHT22;52231;40.090;18.348;2023-11-22T01:46:27;17.80;91.80
65582;DHT22;52231;40.090;18.348;2023-11-22T01:48:55;17.70;91.80
65582;DHT22;52231;40.090;18.348;2023-11-22T01:51:24;17.70;91.80
65582;DHT22;52231;40.090;18.348;2023-11-22T01:53:54;17.70;91.90
65582;DHT22;52231;40.090;18.348;2023-11-22T01:56:25;17.60;92.00
65582;DHT22;52231;40.090;18.348;2023-11-22T01:59:13;17.60;92.00
65582;DHT22;52231;40.090;18.348;2023-11-22T02:01:43;17.60;92.00
65582;DHT22;52231;40.090;18.348;2023-11-22T02:04:12;17.50;92.10
65582;DHT22;52231;40.090;18.348;2023-11-22T02:06:40;17.50;92.10
65582;DHT22;52231;40.090;18.348;2023-11-22T02:09:08;17.50;92.20
65582;DHT22;52231;40.090;18.348;2023-11-22T02:11:42;17.50;92.40
65582;DHT22;52231;40.090;18.348;2023-11-22T02:14:10;17.40;92.40
65582;DHT22;52231;40.090;18.348;2023-11-22T02:16:39;17.40;92.40
65582;DHT22;52231;40.090;18.348;2023-11-22T02:19:14;17.40;92.40
65582;DHT22;52231;40.090;18.348;2023-11-22T02:21:43;17.40;92.50
65582;DHT22;52231;40.090;18.348;2023-11-22T02:24:12;17.40;92.50
65582;DHT22;52231;40.090;18.348;2023-11-22T02:26:46;17.30;92.60
65582;DHT22;52231;40.090;18.348;2023-11-22T02:29:14;17.30;92.60
65582;DHT22;52231;40.090;18.348;2023-11-22T02:31:43;17.30;92.60
65582;DHT22;52231;40.090;18.348;2023-11-22T02:34:12;17.30;92.60
65582;DHT22;52231;40.090;18.348;2023-11-22T02:36:42;17.20;92.70
65582;DHT22;52231;40.090;18.348;2023-11-22T02:39:13;17.20;92.70
65582;DHT22;52231;40.090;18.348;2023-11-22T02:41:41;17.20;92.70
65582;DHT22;52231;40.090;18.348;2023-11-22T02:44:10;17.10;92.70
65582;DHT22;52231;40.090;18.348;2023-11-22T02:46:38;17.10;92.80
65582;DHT22;52231;40.090;18.348;2023-11-22T02:49:07;17.20;92.80
65582;DHT22;52231;40.090;18.348;2023-11-22T02:51:35;17.20;92.90
65582;DHT22;52231;40.090;18.348;2023-11-22T02:54:03;17.10;92.90
65582;DHT22;52231;40.090;18.348;2023-11-22T02:56:52;17.10;92.90
65582;DHT22;52231;40.090;18.348;2023-11-22T02:59:20;17.10;93.00
65582;DHT22;52231;40.090;18.348;2023-11-22T03:01:50;17.10;93.00
65582;DHT22;52231;40.090;18.348;2023-11-22T03:04:19;17.10;93.00
65582;DHT22;52231;40.090;18.348;2023-11-22T03:06:47;17.10;93.00
65582;DHT22;52231;40.090;18.348;2023-11-22T03:09:16;17.10;93.00
65582;DHT22;52231;40.090;18.348;2023-11-22T03:11:44;17.00;93.00
65582;DHT22;52231;40.090;18.348;2023-11-22T03:14:12;17.00;93.00
65582;DHT22;52231;40.090;18.348;2023-11-22T03:16:40;17.00;93.00
65582;DHT22;52231;40.090;18.348;2023-11-22T03:19:08;17.00;93.00
65582;DHT22;52231;40.090;18.348;2023-11-22T03:21:37;17.00;93.10
65582;DHT22;52231;40.090;18.348;2023-11-22T03:24:05;16.90;93.00
65582;DHT22;52231;40.090;18.348;2023-11-22T03:26:34;16.90;93.00
65582;DHT22;52231;40.090;18.348;2023-11-22T03:29:02;16.90;93.10
65582;DHT22;52231;40.090;18.348;2023-11-22T03:31:29;16.90;93.10
65582;DHT22;52231;40.090;18.348;2023-11-22T03:33:58;16.80;93.10
65582;DHT22;52231;40.090;18.348;2023-11-22T03:36:27;16.80;93.10
65582;DHT22;52231;40.090;18.348;2023-11-22T03:38:55;16.80;93.10
65582;DHT22;52231;40.090;18.348;2023-11-22T03:41:24;16.80;93.20
65582;DHT22;52231;40.090;18.348;2023-11-22T03:43:53;16.80;93.20
65582;DHT22;52231;40.090;18.348;2023-11-22T03:46:21;16.80;93.20
65582;DHT22;52231;40.090;18.348;2023-11-22T03:48:49;16.80;93.20
65582;DHT22;52231;40.090;18.348;2023-11-22T03:51:17;16.80;93.20
65582;DHT22;52231;40.090;18.348;2023-11-22T03:53:45;16.80;93.30
65582;DHT22;52231;40.090;18.348;2023-11-22T03:56:13;16.80;93.30
65582;DHT22;52231;40.090;18.348;2023-11-22T03:58:41;16.80;93.20
65582;DHT22;52231;40.090;18.348;2023-11-22T04:01:09;16.70;93.20
65582;DHT22;52231;40.090;18.348;2023-11-22T04:03:37;16.70;93.20
65582;DHT22;52231;40.090;18.348;2023-11-22T04:06:06;16.70;93.20
65582;DHT22;52231;40.090;18.348;2023-11-22T04:08:34;16.70;93.20
65582;DHT22;52231;40.090;18.348;2023-11-22T04:11:03;16.70;93.30
65582;DHT22;52231;40.090;18.348;2023-11-22T04:13:33;16.80;93.40
65582;DHT22;52231;40.090;18.348;2023-11-22T04:16:01;16.80;93.40
65582;DHT22;52231;40.090;18.348;2023-11-22T04:18:29;16.80;93.40
65582;DHT22;52231;40.090;18.348;2023-11-22T04:20:58;16.80;93.40
65582;DHT22;52231;40.090;18.348;2023-11-22T04:23:28;16.80;93.40
65582;DHT22;52231;40.090;18.348;2023-11-22T04:25:57;16.80;93.40
65582;DHT22;52231;40.090;18.348;2023-11-22T04:28:26;16.80;93.40
65582;DHT22;52231;40.090;18.348;2023-11-22T04:30:55;16.80;93.40
65582;DHT22;52231;40.090;18.348;2023-11-22T04:33:24;16.80;93.30
65582;DHT22;52231;40.090;18.348;2023-11-22T04:35:56;16.80;93.30
65582;DHT22;52231;40.090;18.348;2023-11-22T04:38:24;16.80;93.30
65582;DHT22;52231;40.090;18.348;2023-11-22T04:40:53;16.80;93.30
65582;DHT22;52231;40.090;18.348;2023-11-22T04:43:21;16.80;93.30
65582;DHT22;52231;40.090;18.348;2023-11-22T04:45:49;16.80;93.20
65582;DHT22;52231;40.090;18.348;2023-11-22T04:48:17;16.80;93.20
65582;DHT22;52231;40.090;18.348;2023-11-22T04:50:46;16.80;93.20
65582;DHT22;52231;40.090;18.348;2023-11-22T04:53:14;16.80;93.20
65582;DHT22;52231;40.090;18.348;2023-11-22T04:55:42;16.80;93.20
65582;DHT22;52231;40.090;18.348;2023-11-22T04:58:10;16.80;93.20
65582;DHT22;52231;40.090;18.348;2023-11-22T05:00:38;16.80;93.20
65582;DHT22;52231;40.090;18.348;2023-11-22T05:03:07;16.70;93.20
65582;DHT22;52231;40.090;18.348;2023-11-22T05:05:35;16.70;93.30
65582;DHT22;52231;40.090;18.348;2023-11-22T05:08:04;16.70;93.30
65582;DHT22;52231;40.090;18.348;2023-11-22T05:10:32;16.70;93.20
65582;DHT22;52231;40.090;18.348;2023-11-22T05:13:00;16.60;93.20
65582;DHT22;52231;40.090;18.348;2023-11-22T05:15:28;16.60;93.30
65582;DHT22;52231;40.090;18.348;2023-11-22T05:17:56;16.70;93.30
65582;DHT22;52231;40.090;18.348;2023-11-22T05:20:24;16.70;93.30
65582;DHT22;52231;40.090;18.348;2023-11-22T05:22:52;16.70;93.30
65582;DHT22;52231;40.090;18.348;2023-11-22T05:25:20;16.70;93.30
65582;DHT22;52231;40.090;18.348;2023-11-22T05:27:49;16.80;93.30
65582;DHT22;52231;40.090;18.348;2023-11-22T05:30:21;16.80;93.30
65582;DHT22;52231;40.090;18.348;2023-11-22T05:32:50;16.80;93.30
65582;DHT22;52231;40.090;18.348;2023-11-22T05:35:19;16.80;93.20
65582;DHT22;52231;40.090;18.348;2023-11-22T05:37:47;16.80;93.20
65582;DHT22;52231;40.090;18.348;2023-11-22T05:40:15;16.80;93.20
65582;DHT22;52231;40.090;18.348;2023-11-22T05:42:43;16.80;93.30
65582;DHT22;52231;40.090;18.348;2023-11-22T05:45:12;16.80;93.20
65582;DHT22;52231;40.090;18.348;2023-11-22T05:47:40;16.70;93.20
65582;DHT22;52231;40.090;18.348;2023-11-22T05:50:08;16.70;93.20
65582;DHT22;52231;40.090;18.348;2023-11-22T05:52:37;16.70;93.30
65582;DHT22;52231;40.090;18.348;2023-11-22T05:55:05;16.70;93.20
65582;DHT22;52231;40.090;18.348;2023-11-22T05:57:34;16.70;93.20
65582;DHT22;52231;40.090;18.348;2023-11-22T06:00:02;16.70;93.20
65582;DHT22;52231;40.090;18.348;2023-11-22T06:02:31;16.80;93.30
65582;DHT22;52231;40.090;18.348;2023-11-22T06:04:59;16.80;93.20
65582;DHT22;52231;40.090;18.348;2023-11-22T06:07:28;16.80;93.20
65582;DHT22;52231;40.090;18.348;2023-11-22T06:09:56;16.80;93.20
65582;DHT22;52231;40.090;18.348;2023-11-22T06:12:25;16.80;93.20
65582;DHT22;52231;40.090;18.348;2023-11-22T06:14:53;16.80;93.30
65582;DHT22;52231;40.090;18.348;2023-11-22T06:17:21;16.80;93.20
65582;DHT22;52231;40.090;18.348;2023-11-22T06:19:49;16.90;93.20
65582;DHT22;52231;40.090;18.348;2023-11-22T06:22:17;16.80;93.20
65582;DHT22;52231;40.090;18.348;2023-11-22T06:24:47;16.90;93.20
65582;DHT22;52231;40.090;18.348;2023-11-22T06:27:15;16.90;93.10
65582;DHT22;52231;40.090;18.348;2023-11-22T06:29:44;16.90;93.10
65582;DHT22;52231;40.090;18.348;2023-11-22T06:32:12;16.90;93.10
65582;DHT22;52231;40.090;18.348;2023-11-22T06:34:40;17.00;93.00
65582;DHT22;52231;40.090;18.348;2023-11-22T06:37:08;17.00;92.90
65582;DHT22;52231;40.090;18.348;2023-11-22T06:39:36;17.10;92.90
65582;DHT22;52231;40.090;18.348;2023-11-22T06:42:05;17.20;92.80
65582;DHT22;52231;40.090;18.348;2023-11-22T06:44:34;17.20;92.70
65582;DHT22;52231;40.090;18.348;2023-11-22T06:47:02;17.30;92.60
65582;DHT22;52231;40.090;18.348;2023-11-22T06:49:30;17.30;92.50
65582;DHT22;52231;40.090;18.348;2023-11-22T06:51:58;17.50;92.40
65582;DHT22;52231;40.090;18.348;2023-11-22T06:54:27;17.60;92.20
65582;DHT22;52231;40.090;18.348;2023-11-22T06:56:55;17.70;91.90
65582;DHT22;52231;40.090;18.348;2023-11-22T06:59:23;17.80;91.60
65582;DHT22;52231;40.090;18.348;2023-11-22T07:01:51;17.90;91.20
65582;DHT22;52231;40.090;18.348;2023-11-22T07:04:19;18.00;90.80
65582;DHT22;52231;40.090;18.348;2023-11-22T07:06:48;18.10;90.40
65582;DHT22;52231;40.090;18.348;2023-11-22T07:09:16;18.30;90.10
65582;DHT22;52231;40.090;18.348;2023-11-22T07:11:45;18.40;89.50
65582;DHT22;52231;40.090;18.348;2023-11-22T07:14:13;18.50;88.80
65582;DHT22;52231;40.090;18.348;2023-11-22T07:16:42;18.70;88.30
65582;DHT22;52231;40.090;18.348;2023-11-22T07:19:10;18.80;87.70
65582;DHT22;52231;40.090;18.348;2023-11-22T07:21:40;18.90;87.10
65582;DHT22;52231;40.090;18.348;2023-11-22T07:24:08;19.10;86.80
65582;DHT22;52231;40.090;18.348;2023-11-22T07:26:36;19.30;86.20
65582;DHT22;52231;40.090;18.348;2023-11-22T07:29:05;19.40;85.60
65582;DHT22;52231;40.090;18.348;2023-11-22T07:31:34;19.50;85.10
65582;DHT22;52231;40.090;18.348;2023-11-22T07:34:02;19.50;85.00
65582;DHT22;52231;40.090;18.348;2023-11-22T07:36:30;19.50;85.10
65582;DHT22;52231;40.090;18.348;2023-11-22T07:38:58;19.60;85.00
65582;DHT22;52231;40.090;18.348;2023-11-22T07:41:27;19.60;85.10
65582;DHT22;52231;40.090;18.348;2023-11-22T07:43:55;19.70;84.90
65582;DHT22;52231;40.090;18.348;2023-11-22T07:46:23;19.80;84.80
65582;DHT22;52231;40.090;18.348;2023-11-22T07:48:51;19.80;84.50
65582;DHT22;52231;40.090;18.348;2023-11-22T07:51:21;19.90;84.40
65582;DHT22;52231;40.090;18.348;2023-11-22T07:54:10;20.00;84.10
65582;DHT22;52231;40.090;18.348;2023-11-22T07:56:43;20.00;83.60
65582;DHT22;52231;40.090;18.348;2023-11-22T07:59:11;20.10;83.80
65582;DHT22;52231;40.090;18.348;2023-11-22T08:01:42;20.30;83.60
65582;DHT22;52231;40.090;18.348;2023-11-22T08:04:11;20.30;82.30
65582;DHT22;52231;40.090;18.348;2023-11-22T08:06:40;20.30;82.40
65582;DHT22;52231;40.090;18.348;2023-11-22T08:09:08;20.40;81.90
65582;DHT22;52231;40.090;18.348;2023-11-22T08:11:37;20.50;81.80
65582;DHT22;52231;40.090;18.348;2023-11-22T08:14:05;20.70;81.70
65582;DHT22;52231;40.090;18.348;2023-11-22T08:16:33;20.60;80.90
65582;DHT22;52231;40.090;18.348;2023-11-22T08:19:06;20.50;81.40
65582;DHT22;52231;40.090;18.348;2023-11-22T08:21:35;20.50;81.50
65582;DHT22;52231;40.090;18.348;2023-11-22T08:24:04;20.40;81.70
65582;DHT22;52231;40.090;18.348;2023-11-22T08:26:32;20.30;81.90
65582;DHT22;52231;40.090;18.348;2023-11-22T08:29:00;20.20;81.10
65582;DHT22;52231;40.090;18.348;2023-11-22T08:31:29;20.10;81.60
65582;DHT22;52231;40.090;18.348;2023-11-22T08:33:58;20.00;82.20
65582;DHT22;52231;40.090;18.348;2023-11-22T08:36:26;19.90;82.70
65582;DHT22;52231;40.090;18.348;2023-11-22T08:38:56;19.90;82.90
65582;DHT22;52231;40.090;18.348;2023-11-22T08:41:26;19.90;82.90
65582;DHT22;52231;40.090;18.348;2023-11-22T08:43:55;19.80;82.30
65582;DHT22;52231;40.090;18.348;2023-11-22T08:46:23;19.80;82.30
65582;DHT22;52231;40.090;18.348;2023-11-22T08:48:51;19.90;82.00
65582;DHT22;52231;40.090;18.348;2023-11-22T08:51:20;20.00;81.80
65582;DHT22;52231;40.090;18.348;2023-11-22T08:53:49;20.20;81.40
65582;DHT22;52231;40.090;18.348;2023-11-22T08:56:17;20.30;81.00
65582;DHT22;52231;40.090;18.348;2023-11-22T08:58:45;20.40;80.30
65582;DHT22;52231;40.090;18.348;2023-11-22T09:01:13;20.50;80.00
65582;DHT22;52231;40.090;18.348;2023-11-22T09:03:43;20.80;79.90
65582;DHT22;52231;40.090;18.348;2023-11-22T09:06:11;21.00;79.10
65582;DHT22;52231;40.090;18.348;2023-11-22T09:08:40;21.00;78.00
65582;DHT22;52231;40.090;18.348;2023-11-22T09:11:08;21.10;77.40
65582;DHT22;52231;40.090;18.348;2023-11-22T09:13:38;21.20;77.40
65582;DHT22;52231;40.090;18.348;2023-11-22T09:16:07;21.30;77.00
65582;DHT22;52231;40.090;18.348;2023-11-22T09:18:37;21.30;76.70
65582;DHT22;52231;40.090;18.348;2023-11-22T09:21:05;21.30;76.70
65582;DHT22;52231;40.090;18.348;2023-11-22T09:23:36;21.20;75.80
65582;DHT22;52231;40.090;18.348;2023-11-22T09:26:04;20.90;76.10
65582;DHT22;52231;40.090;18.348;2023-11-22T09:28:32;21.00;76.80
65582;DHT22;52231;40.090;18.348;2023-11-22T09:31:01;21.20;77.00
65582;DHT22;52231;40.090;18.348;2023-11-22T09:33:34;21.50;75.60
65582;DHT22;52231;40.090;18.348;2023-11-22T09:36:03;21.80;74.40
65582;DHT22;52231;40.090;18.348;2023-11-22T09:38:33;21.90;72.80
65582;DHT22;52231;40.090;18.348;2023-11-22T09:41:01;22.00;72.30
65582;DHT22;52231;40.090;18.348;2023-11-22T09:43:31;22.00;71.10
65582;DHT22;52231;40.090;18.348;2023-11-22T09:45:59;22.10;70.10
65582;DHT22;52231;40.090;18.348;2023-11-22T09:48:31;22.10;70.50
65582;DHT22;52231;40.090;18.348;2023-11-22T09:51:15;22.40;69.80
65582;DHT22;52231;40.090;18.348;2023-11-22T09:53:59;22.80;69.10
65582;DHT22;52231;40.090;18.348;2023-11-22T09:56:32;23.00;66.80
65582;DHT22;52231;40.090;18.348;2023-11-22T09:59:03;23.10;66.10
65582;DHT22;52231;40.090;18.348;2023-11-22T10:01:32;22.90;64.60
65582;DHT22;52231;40.090;18.348;2023-11-22T10:04:04;22.80;65.00
65582;DHT22;52231;40.090;18.348;2023-11-22T10:06:35;22.80;65.40
65582;DHT22;52231;40.090;18.348;2023-11-22T10:09:04;22.80;65.80
65582;DHT22;52231;40.090;18.348;2023-11-22T10:11:35;22.90;64.70
65582;DHT22;52231;40.090;18.348;2023-11-22T10:14:06;22.80;64.30
65582;DHT22;52231;40.090;18.348;2023-11-22T10:16:34;22.90;65.00
65582;DHT22;52231;40.090;18.348;2023-11-22T10:19:03;23.00;65.10
65582;DHT22;52231;40.090;18.348;2023-11-22T10:21:34;23.30;65.20
65582;DHT22;52231;40.090;18.348;2023-11-22T10:24:03;23.50;64.20
65582;DHT22;52231;40.090;18.348;2023-11-22T10:26:32;23.50;62.00
65582;DHT22;52231;40.090;18.348;2023-11-22T10:29:01;23.50;61.50
65582;DHT22;52231;40.090;18.348;2023-11-22T10:31:30;23.30;61.70
65582;DHT22;52231;40.090;18.348;2023-11-22T10:33:58;23.20;61.90
65582;DHT22;52231;40.090;18.348;2023-11-22T10:36:26;23.20;62.50
65582;DHT22;52231;40.090;18.348;2023-11-22T10:38:55;23.30;62.80
65582;DHT22;52231;40.090;18.348;2023-11-22T10:41:23;23.20;63.50
65582;DHT22;52231;40.090;18.348;2023-11-22T10:43:52;23.00;64.80
65582;DHT22;52231;40.090;18.348;2023-11-22T10:46:29;22.90;65.20
65582;DHT22;52231;40.090;18.348;2023-11-22T10:48:58;22.90;65.80
65582;DHT22;52231;40.090;18.348;2023-11-22T10:51:32;22.80;65.60
65582;DHT22;52231;40.090;18.348;2023-11-22T10:54:01;22.70;65.50
65582;DHT22;52231;40.090;18.348;2023-11-22T10:56:38;22.60;65.00
65582;DHT22;52231;40.090;18.348;2023-11-22T10:59:13;22.60;65.60
65582;DHT22;52231;40.090;18.348;2023-11-22T11:01:45;22.40;66.40
65582;DHT22;52231;40.090;18.348;2023-11-22T11:04:24;22.40;66.90
65582;DHT22;52231;40.090;18.348;2023-11-22T11:06:55;22.40;67.50
65582;DHT22;52231;40.090;18.348;2023-11-22T11:09:25;22.30;68.50
65582;DHT22;52231;40.090;18.348;2023-11-22T11:11:59;22.20;70.00
65582;DHT22;52231;40.090;18.348;2023-11-22T11:14:32;22.00;71.20
65582;DHT22;52231;40.090;18.348;2023-11-22T11:17:01;21.70;73.10
65582;DHT22;52231;40.090;18.348;2023-11-22T11:19:29;21.40;74.90
65582;DHT22;52231;40.090;18.348;2023-11-22T11:21:59;21.40;75.90
65582;DHT22;52231;40.090;18.348;2023-11-22T11:24:28;21.30;75.60
65582;DHT22;52231;40.090;18.348;2023-11-22T11:26:56;21.40;75.40
65582;DHT22;52231;40.090;18.348;2023-11-22T11:29:34;21.30;73.80
65582;DHT22;52231;40.090;18.348;2023-11-22T11:32:04;21.50;74.30
65582;DHT22;52231;40.090;18.348;2023-11-22T11:34:32;21.80;73.80
65582;DHT22;52231;40.090;18.348;2023-11-22T11:37:00;22.00;73.10
65582;DHT22;52231;40.090;18.348;2023-11-22T11:39:29;22.10;72.20
65582;DHT22;52231;40.090;18.348;2023-11-22T11:42:08;22.00;71.70
65582;DHT22;52231;40.090;18.348;2023-11-22T11:44:52;21.80;71.00
65582;DHT22;52231;40.090;18.348;2023-11-22T11:47:31;21.70;71.80
65582;DHT22;52231;40.090;18.348;2023-11-22T11:50:03;21.60;71.70
65582;DHT22;52231;40.090;18.348;2023-11-22T11:57:31;21.20;78.80
65582;DHT22;52231;40.090;18.348;2023-11-22T12:00:00;18.80;75.10
65582;DHT22;52231;40.090;18.348;2023-11-22T12:02:38;18.10;79.00
65582;DHT22;52231;40.090;18.348;2023-11-22T12:05:06;17.80;80.20
65582;DHT22;52231;40.090;18.348;2023-11-22T12:07:38;17.40;81.10
65582;DHT22;52231;40.090;18.348;2023-11-22T12:10:06;17.30;81.80
65582;DHT22;52231;40.090;18.348;2023-11-22T12:12:34;17.40;82.80
65582;DHT22;52231;40.090;18.348;2023-11-22T12:15:03;17.60;84.00
65582;DHT22;52231;40.090;18.348;2023-11-22T15:50:04;15.60;93.40
65582;DHT22;52231;40.090;18.348;2023-11-22T15:52:35;15.60;93.50
65582;DHT22;52231;40.090;18.348;2023-11-22T15:55:04;15.60;93.50
65582;DHT22;52231;40.090;18.348;2023-11-22T15:57:33;15.60;93.50
65582;DHT22;52231;40.090;18.348;2023-11-22T16:00:02;15.60;93.50
65582;DHT22;52231;40.090;18.348;2023-11-22T16:02:38;15.60;93.50
65582;DHT22;52231;40.090;18.348;2023-11-22T16:05:25;15.50;93.50
65582;DHT22;52231;40.090;18.348;2023-11-22T16:07:53;15.50;93.60
65582;DHT22;52231;40.090;18.348;2023-11-22T16:10:21;15.50;93.60
65582;DHT22;52231;40.090;18.348;2023-11-22T16:12:49;15.50;93.60
65582;DHT22;52231;40.090;18.348;2023-11-22T16:15:19;15.50;93.60
65582;DHT22;52231;40.090;18.348;2023-11-22T16:17:47;15.40;93.60
65582;DHT22;52231;40.090;18.348;2023-11-22T16:20:15;15.40;93.60
65582;DHT22;52231;40.090;18.348;2023-11-22T16:22:45;15.40;93.60
65582;DHT22;52231;40.090;18.348;2023-11-22T16:25:14;15.40;93.60
65582;DHT22;52231;40.090;18.348;2023-11-22T16:27:42;15.40;93.70
65582;DHT22;52231;40.090;18.348;2023-11-22T16:30:11;15.30;93.70
65582;DHT22;52231;40.090;18.348;2023-11-22T16:32:39;15.30;93.70
65582;DHT22;52231;40.090;18.348;2023-11-22T16:35:11;15.30;93.70
65582;DHT22;52231;40.090;18.348;2023-11-22T16:37:40;15.30;93.70
65582;DHT22;52231;40.090;18.348;2023-11-22T16:40:08;15.30;93.70
65582;DHT22;52231;40.090;18.348;2023-11-22T16:42:37;15.40;93.70
65582;DHT22;52231;40.090;18.348;2023-11-22T16:45:06;15.40;93.80
65582;DHT22;52231;40.090;18.348;2023-11-22T16:47:35;15.40;93.70
65582;DHT22;52231;40.090;18.348;2023-11-22T16:50:05;15.30;93.80
65582;DHT22;52231;40.090;18.348;2023-11-22T16:52:34;15.30;93.80
65582;DHT22;52231;40.090;18.348;2023-11-22T16:55:02;15.40;93.80
65582;DHT22;52231;40.090;18.348;2023-11-22T16:57:35;15.40;93.80
65582;DHT22;52231;40.090;18.348;2023-11-22T17:00:07;15.30;93.80
65582;DHT22;52231;40.090;18.348;2023-11-22T17:02:49;15.30;93.90
65582;DHT22;52231;40.090;18.348;2023-11-22T17:05:22;15.30;93.90
65582;DHT22;52231;40.090;18.348;2023-11-22T17:08:09;15.30;93.90
65582;DHT22;52231;40.090;18.348;2023-11-22T17:10:43;15.30;93.90
65582;DHT22;52231;40.090;18.348;2023-11-22T17:13:23;15.30;93.90
65582;DHT22;52231;40.090;18.348;2023-11-22T17:15:59;15.30;93.90
65582;DHT22;52231;40.090;18.348;2023-11-22T17:18:34;15.30;94.00
65582;DHT22;52231;40.090;18.348;2023-11-22T17:26:27;15.30;94.00
65582;DHT22;52231;40.090;18.348;2023-11-22T17:29:10;15.30;94.00
65582;DHT22;52231;40.090;18.348;2023-11-22T17:31:47;15.30;94.10
65582;DHT22;52231;40.090;18.348;2023-11-22T17:34:21;15.30;94.10
65582;DHT22;52231;40.090;18.348;2023-11-22T17:36:51;15.30;94.10
65582;DHT22;52231;40.090;18.348;2023-11-22T17:39:27;15.30;94.10
65582;DHT22;52231;40.090;18.348;2023-11-22T17:52:07;15.20;94.10
65582;DHT22;52231;40.090;18.348;2023-11-22T17:54:42;15.20;94.20
65582;DHT22;52231;40.090;18.348;2023-11-22T17:57:15;15.20;94.20
65582;DHT22;52231;40.090;18.348;2023-11-22T17:59:51;15.20;94.20
65582;DHT22;52231;40.090;18.348;2023-11-22T18:02:29;15.20;94.20
65582;DHT22;52231;40.090;18.348;2023-11-22T18:04:57;15.20;94.20
65582;DHT22;52231;40.090;18.348;2023-11-22T18:07:25;15.20;94.20
65582;DHT22;52231;40.090;18.348;2023-11-22T18:09:54;15.20;94.30
65582;DHT22;52231;40.090;18.348;2023-11-22T18:12:22;15.20;94.30
65582;DHT22;52231;40.090;18.348;2023-11-22T18:14:50;15.20;94.30
65582;DHT22;52231;40.090;18.348;2023-11-22T18:17:18;15.20;94.30
65582;DHT22;52231;40.090;18.348;2023-11-22T18:19:47;15.30;94.30
65582;DHT22;52231;40.090;18.348;2023-11-22T18:22:15;15.20;94.30
65582;DHT22;52231;40.090;18.348;2023-11-22T18:24:44;15.30;94.40
65582;DHT22;52231;40.090;18.348;2023-11-22T18:27:12;15.30;94.40
65582;DHT22;52231;40.090;18.348;2023-11-22T18:29:40;15.20;94.40
65582;DHT22;52231;40.090;18.348;2023-11-22T18:32:08;15.30;94.40
65582;DHT22;52231;40.090;18.348;2023-11-22T18:34:36;15.20;94.40
65582;DHT22;52231;40.090;18.348;2023-11-22T18:37:05;15.20;94.40
65582;DHT22;52231;40.090;18.348;2023-11-22T18:39:34;15.20;94.40
65582;DHT22;52231;40.090;18.348;2023-11-22T18:42:05;15.20;94.40
65582;DHT22;52231;40.090;18.348;2023-11-22T18:48:39;15.10;94.40
65582;DHT22;52231;40.090;18.348;2023-11-22T18:51:15;15.10;94.50
65582;DHT22;52231;40.090;18.348;2023-11-22T18:53:55;15.00;94.40
65582;DHT22;52231;40.090;18.348;2023-11-22T18:56:38;14.90;94.40
65582;DHT22;52231;40.090;18.348;2023-11-22T18:59:44;14.90;94.40
65582;DHT22;52231;40.090;18.348;2023-11-22T19:02:20;14.80;94.40
65582;DHT22;52231;40.090;18.348;2023-11-22T19:04:48;14.70;94.40
65582;DHT22;52231;40.090;18.348;2023-11-22T19:07:22;14.70;94.40
65582;DHT22;52231;40.090;18.348;2023-11-22T19:10:25;14.70;94.40
65582;DHT22;52231;40.090;18.348;2023-11-22T19:12:58;14.70;94.40
65582;DHT22;52231;40.090;18.348;2023-11-22T19:15:46;14.60;94.40
65582;DHT22;52231;40.090;18.348;2023-11-22T19:18:26;14.60;94.40
65582;DHT22;52231;40.090;18.348;2023-11-22T19:21:48;14.60;94.40
65582;DHT22;52231;40.090;18.348;2023-11-22T19:24:41;14.60;94.50
65582;DHT22;52231;40.090;18.348;2023-11-22T19:27:15;14.60;94.50
65582;DHT22;52231;40.090;18.348;2023-11-22T19:29:49;14.60;94.50
65582;DHT22;52231;40.090;18.348;2023-11-22T19:32:19;14.60;94.50